Latest Weather Observations for Holsworthy

IDN60901

Issued at 2:45 pm EST Tuesday 29 July 2014 (issued every 10 minutes, with the page automatically refreshed every 10 minutes)

About weather observations | Map of Sydney area stations | Latest observations for Sydney area | Other Formats
Station Details ID: 066161 Name: HOLSWORTHY AERODROME AWS Lat: -33.99 Lon: 150.95 Height: 68.16 m
Data from the previous 72 hours. | See also: Recent months for locations in New South Wales
Date/Time
EST
Tmp

°C
App
Tmp
°C
Dew
Point
°C
Rel
Hum
%
Delta-T

°C
Wind Press
QNH
hPa
Press
MSL
hPa
Rain
since
9 am
mm
Dir
 
Spd
km/h
Gust
km/h
Spd
kts
Gust
kts
29/02:30pm 22.7 17.3 2.2 26 9.7 NW 20 32 11 17 1013.0 - 0.0
29/02:00pm 21.6 16.6 3.8 31 8.6 N 19 28 10 15 1013.1 1013.2 0.0
29/01:30pm 21.0 15.5 4.1 33 8.2 N 22 32 12 17 1013.6 - 0.0
29/01:00pm 20.2 15.2 3.4 33 8.0 N 19 30 10 16 1014.5 1014.5 0.0
29/12:30pm 19.3 13.3 3.1 34 7.6 N 24 35 13 19 1014.6 - 0.0
29/12:00pm 18.8 13.2 3.4 36 7.2 N 22 39 12 21 1015.3 1015.3 0.0
29/11:30am 18.1 13.0 4.3 40 6.6 N 20 28 11 15 1015.9 - 0.0
29/11:00am 17.4 12.3 4.0 41 6.3 N 20 33 11 18 1016.6 1016.6 0.0
29/10:30am 16.3 12.6 4.7 46 5.5 N 13 20 7 11 1017.2 - 0.0
29/10:00am 15.3 12.1 5.2 51 4.8 N 11 17 6 9 1017.6 1017.6 0.0
29/09:30am 14.1 11.0 5.7 57 4.0 N 11 15 6 8 1017.8 - 0.0
29/09:00am 12.6 9.6 5.8 63 3.2 N 11 15 6 8 1018.0 1018.0 0.0
29/08:30am 10.7 8.5 6.1 73 2.1 N 7 9 4 5 1018.2 - 0.0
29/08:00am 9.2 7.5 5.9 80 1.5 SW 4 6 2 3 1018.1 1018.1 0.0
29/07:30am 8.7 6.3 5.3 79 1.5 SW 7 9 4 5 1018.1 - 0.0
29/07:00am 8.5 6.1 5.1 79 1.5 SW 7 9 4 5 1018.0 1018.0 0.0
29/06:30am 9.0 6.2 5.2 77 1.7 SW 9 11 5 6 1017.9 - 0.0
29/06:00am 9.0 6.2 5.2 77 1.7 WSW 9 11 5 6 1017.7 1017.7 0.0
29/05:30am 8.8 6.4 5.2 78 1.6 W 7 9 4 5 1017.5 - 0.0
29/05:00am 9.2 6.5 5.4 77 1.7 W 9 11 5 6 1017.5 1017.5 0.0
29/04:30am 9.5 6.8 5.5 76 1.8 WSW 9 11 5 6 1017.4 - 0.0
29/04:00am 8.9 6.5 5.1 77 1.7 SW 7 9 4 5 1017.5 1017.5 0.0
29/03:30am 9.5 7.7 5.3 75 1.9 SW 4 6 2 3 1017.5 - 0.0
29/03:00am 11.3 8.6 5.6 68 2.6 NNW 9 15 5 8 1017.3 1017.3 0.0
29/02:30am 10.4 8.6 5.2 70 2.4 NNW 4 9 2 5 1017.4 - 0.0
29/02:00am 11.1 8.7 5.2 67 2.7 W 7 15 4 8 1017.6 1017.6 0.0
29/01:30am 10.9 7.4 5.4 69 2.5 WNW 13 19 7 10 1017.5 - 0.0
29/01:00am 11.1 8.4 5.6 69 2.5 WNW 9 13 5 7 1017.9 1017.9 0.0
29/12:30am 10.8 8.5 5.6 70 2.4 WNW 7 11 4 6 1018.0 - 0.0
29/12:00am 10.9 8.7 5.4 69 2.5 WNW 6 11 3 6 1018.3 1018.3 0.0
 
Date/Time
EST
Tmp

°C
App
Tmp
°C
Dew
Point
°C
Rel
Hum
%
Delta-T

°C
Wind Press
QNH
hPa
Press
MSL
hPa
Rain
since
9 am
mm
Dir
 
Spd
km/h
Gust
km/h
Spd
kts
Gust
kts
28/11:30pm 11.0 8.8 5.5 69 2.5 NW 6 7 3 4 1018.6 - 0.0
28/11:00pm 10.9 9.1 5.4 69 2.5 NW 4 7 2 4 1018.9 1018.9 0.0
28/10:30pm 11.6 10.2 5.3 65 2.9 WNW 2 7 1 4 1019.0 - 0.0
28/10:00pm 11.8 9.5 5.0 63 3.1 W 6 9 3 5 1019.3 1019.4 0.0
28/09:30pm 14.5 12.1 5.3 54 4.3 NNW 7 20 4 11 1019.2 - 0.0
28/09:00pm 11.6 10.6 5.7 67 2.7 CALM 0 0 0 0 1019.2 1019.3 0.0
28/08:30pm 12.8 10.6 5.5 61 3.4 WSW 6 13 3 7 1019.2 - 0.0
28/08:00pm 13.1 10.4 5.5 60 3.6 SW 9 20 5 11 1019.3 1019.4 0.0
28/07:30pm 11.9 9.6 5.8 66 2.9 WSW 7 7 4 4 1019.1 - 0.0
28/07:00pm 12.2 9.9 5.6 64 3.1 WSW 7 11 4 6 1019.0 1019.0 0.0
28/06:30pm 12.9 10.6 5.8 62 3.3 W 7 9 4 5 1019.0 - 0.0
28/06:00pm 13.6 11.3 5.5 58 3.8 W 7 11 4 6 1018.6 1018.6 0.0
28/05:30pm 15.6 13.2 5.2 50 4.9 NNW 7 11 4 6 1018.5 - 0.0
28/05:00pm 15.2 13.0 5.4 52 4.7 NNW 6 7 3 4 1018.3 1018.3 0.0
28/04:30pm 15.8 13.7 5.7 51 4.9 NW 6 7 3 4 1018.0 - 0.0
28/04:00pm 16.8 14.1 5.4 47 5.5 NNW 9 15 5 8 1017.9 1017.9 0.0
28/03:30pm 16.9 13.7 5.2 46 5.6 NW 11 22 6 12 1018.0 - 0.0
28/03:00pm 16.9 13.3 5.2 46 5.6 NW 13 17 7 9 1017.9 1017.9 0.0
28/02:30pm 17.2 13.7 5.5 46 5.7 NW 13 20 7 11 1018.0 - 0.0
28/02:00pm 17.3 12.9 4.6 43 6.0 W 17 26 9 14 1017.9 1017.9 0.0
28/01:30pm 17.4 12.4 4.4 42 6.2 W 20 33 11 18 1018.2 - 0.0
28/01:00pm 17.9 12.4 4.1 40 6.5 W 22 35 12 19 1018.5 1018.5 0.0
28/12:30pm 17.1 10.9 4.1 42 6.1 W 26 37 14 20 1019.0 - 0.0
28/12:00pm 17.0 12.1 5.3 46 5.6 W 20 26 11 14 1019.6 1019.7 0.0
28/11:30am 16.3 11.4 5.0 47 5.4 W 20 32 11 17 1020.1 - 0.0
28/11:00am 15.7 10.9 4.7 48 5.2 W 19 26 10 14 1020.6 1020.7 0.0
28/10:30am 15.5 11.1 4.8 49 5.0 W 17 28 9 15 1021.0 - 0.0
28/10:00am 15.0 11.2 6.0 55 4.3 W 15 20 8 11 1021.0 1021.1 0.0
28/09:30am 12.8 9.8 6.2 64 3.1 NW 11 17 6 9 1020.9 - 0.0
28/09:00am 11.0 8.4 6.2 72 2.2 WNW 9 15 5 8 1021.1 1021.2 0.0
28/08:30am 8.9 6.7 6.0 82 1.3 W 7 11 4 6 1021.2 - 0.0
28/08:00am 7.7 5.5 5.2 84 1.1 WNW 6 7 3 4 1021.3 1021.4 0.0
28/07:30am 6.5 4.1 4.3 86 0.9 W 6 6 3 3 1021.5 - 0.0
28/07:00am 6.5 3.9 4.3 86 0.9 W 7 9 4 5 1021.6 1021.7 0.0
28/06:30am 6.9 3.6 4.4 84 1.1 W 11 17 6 9 1021.5 - 0.0
28/06:00am 7.0 4.4 4.1 82 1.2 WNW 7 9 4 5 1020.7 1020.8 0.0
28/05:30am 7.1 4.4 3.9 80 1.4 N 7 9 4 5 1020.5 - 0.0
28/05:00am 7.9 5.8 3.9 76 1.7 NW 4 9 2 5 1020.3 1020.4 0.0
28/04:30am 8.7 5.4 4.3 74 1.9 WNW 11 17 6 9 1020.4 - 0.0
28/04:00am 7.9 4.5 3.9 76 1.7 W 11 15 6 8 1020.5 1020.6 0.0
28/03:30am 8.1 5.1 4.3 77 1.7 WSW 9 15 5 8 1020.6 - 0.0
28/03:00am 7.5 4.8 3.9 78 1.5 SW 7 11 4 6 1021.1 1021.2 0.0
28/02:30am 7.6 4.6 4.2 79 1.5 SW 9 13 5 7 1021.7 - 0.0
28/02:00am 7.4 4.0 4.2 80 1.4 SW 11 15 6 8 1021.7 1021.8 0.0
28/01:30am 7.3 4.3 4.1 80 1.4 SW 9 13 5 7 1021.5 - 0.0
28/01:00am 7.7 4.7 4.1 78 1.6 SW 9 15 5 8 1021.9 1022.0 0.0
28/12:30am 8.4 4.3 4.4 76 1.8 SW 15 20 8 11 1021.9 - 0.0
28/12:00am 8.1 4.4 4.5 78 1.6 SW 13 17 7 9 1021.5 1021.6 0.0
 
Date/Time
EST
Tmp

°C
App
Tmp
°C
Dew
Point
°C
Rel
Hum
%
Delta-T

°C
Wind Press
QNH
hPa
Press
MSL
hPa
Rain
since
9 am
mm
Dir
 
Spd
km/h
Gust
km/h
Spd
kts
Gust
kts
27/11:30pm 6.1 3.7 4.4 89 0.7 SW 6 9 3 5 1021.6 - 0.0
27/11:00pm 5.7 3.0 3.7 87 0.8 W 7 9 4 5 1022.1 1022.2 0.0
27/10:30pm 6.7 5.4 4.0 83 1.2 CALM 0 0 0 0 1022.3 - 0.0
27/10:00pm 8.6 6.3 4.8 77 1.7 SW 6 7 3 4 1022.4 1022.5 0.0
27/09:30pm 8.5 5.6 4.7 77 1.7 SSW 9 9 5 5 1022.7 - 0.0
27/09:00pm 9.7 7.2 4.7 71 2.2 SSW 7 7 4 4 1023.1 1023.2 0.0
27/08:30pm 9.5 7.1 5.1 74 2.0 SSW 7 9 4 5 1023.4 - 0.0
27/08:00pm 12.0 9.3 5.6 65 3.0 SSW 9 11 5 6 1023.3 1023.4 0.0
27/07:30pm 10.9 8.6 5.7 70 2.4 SW 7 7 4 4 1023.5 - 0.0
27/07:00pm 11.2 9.6 6.3 72 2.3 SW 4 6 2 3 1023.5 1023.6 0.0
27/06:30pm 13.5 10.7 7.1 65 3.1 S 11 13 6 7 1022.7 - 0.0
27/06:00pm 13.6 10.8 6.9 64 3.2 SSE 11 13 6 7 1022.4 1022.5 0.0
27/05:30pm 14.4 11.9 6.5 59 3.8 SE 9 11 5 6 1022.2 - 0.0
27/05:00pm 15.6 12.7 6.3 54 4.5 ESE 11 13 6 7 1021.6 1021.7 0.0
27/04:30pm 16.8 13.5 6.3 50 5.2 ESE 13 17 7 9 1021.4 - 0.0
27/04:00pm 19.8 17.6 5.1 38 7.2 WNW 6 9 3 5 1021.2 1021.3 0.0
27/03:30pm 20.0 17.6 5.3 38 7.2 W 7 13 4 7 1021.2 - 0.0
27/03:00pm 19.7 16.5 5.0 38 7.2 SW 11 20 6 11 1021.2 1021.3 0.0
27/02:30pm 19.4 15.7 4.7 38 7.1 W 13 22 7 12 1021.3 - 0.0
27/02:00pm 18.8 15.1 4.2 38 6.9 NNW 13 20 7 11 1021.5 1021.6 0.0
27/01:30pm 19.3 15.0 5.4 40 6.8 WSW 17 26 9 14 1021.6 - 0.0
27/01:00pm 18.9 15.2 4.3 38 7.0 WSW 13 22 7 12 1021.9 1022.0 0.0
27/12:30pm 18.6 14.6 5.1 41 6.6 SW 15 24 8 13 1022.4 - 0.0
27/12:00pm 18.0 13.3 5.2 43 6.2 WSW 19 30 10 16 1023.1 1023.2 0.0
27/11:30am 17.7 13.9 5.9 46 5.8 W 15 22 8 12 1023.7 - 0.0
27/11:00am 16.6 12.5 6.1 50 5.1 W 17 20 9 11 1024.2 1024.3 0.0
27/10:30am 15.9 11.4 6.1 52 4.8 WSW 19 24 10 13 1024.6 - 0.0
27/10:00am 14.9 10.5 6.5 57 4.1 WSW 19 26 10 14 1025.0 1025.1 0.0
27/09:30am 14.1 10.1 6.5 60 3.7 WSW 17 24 9 13 1024.8 - 0.0
27/09:00am 13.0 9.4 6.8 66 3.0 WSW 15 22 8 12 1024.6 1024.7 0.4
27/08:30am 11.7 8.8 6.6 71 2.4 WSW 11 17 6 9 1024.5 - 0.4
27/08:00am 10.1 6.7 5.7 74 2.0 WSW 13 17 7 9 1024.3 1024.4 0.4
27/07:30am 8.1 5.6 5.0 81 1.4 WSW 7 13 4 7 1024.1 - 0.4
27/07:00am 7.8 4.9 4.9 82 1.3 WSW 9 11 5 6 1023.9 1024.0 0.4
27/06:30am 8.1 5.3 5.2 82 1.3 WSW 9 15 5 8 1023.6 - 0.4
27/06:00am 8.3 5.2 5.6 83 1.2 SW 11 15 6 8 1023.1 1023.2 0.4
27/05:30am 8.1 5.3 5.2 82 1.3 SW 9 15 5 8 1022.8 - 0.4
27/05:00am 8.0 4.9 5.6 85 1.1 SW 11 15 6 8 1022.6 1022.7 0.4
27/04:30am 8.2 5.4 5.3 82 1.3 WSW 9 13 5 7 1022.8 - 0.4
27/04:00am 8.6 5.5 5.4 80 1.4 WSW 11 15 6 8 1022.7 1022.8 0.4
27/03:30am 9.0 5.9 5.7 80 1.5 SW 11 15 6 8 1022.8 - 0.4
27/03:00am 9.1 6.4 5.7 79 1.5 SW 9 11 5 6 1023.0 1023.1 0.4
27/02:30am 9.0 5.9 5.6 79 1.5 SW 11 15 6 8 1023.0 - 0.4
27/02:00am 9.0 5.9 5.7 80 1.5 SW 11 15 6 8 1023.0 1023.1 0.4
27/01:30am 8.4 5.3 5.7 83 1.2 WSW 11 17 6 9 1023.1 - 0.4
27/01:00am 8.7 6.0 5.4 80 1.5 SW 9 13 5 7 1022.9 1023.0 0.4
27/12:30am 8.6 5.9 5.5 81 1.4 SW 9 13 5 7 1023.0 - 0.4
27/12:00am 8.1 5.4 5.4 83 1.2 SW 9 13 5 7 1023.2 1023.3 0.4
 
Date/Time
EST
Tmp

°C
App
Tmp
°C
Dew
Point
°C
Rel
Hum
%
Delta-T

°C
Wind Press
QNH
hPa
Press
MSL
hPa
Rain
since
9 am
mm
Dir
 
Spd
km/h
Gust
km/h
Spd
kts
Gust
kts
26/11:30pm 7.7 5.2 4.8 82 1.3 WSW 7 9 4 5 1023.3 - 0.4
26/11:00pm 8.4 5.3 5.7 83 1.2 SW 11 13 6 7 1023.3 1023.4 0.4
26/10:30pm 8.0 5.6 5.1 82 1.3 SW 7 11 4 6 1023.3 - 0.4
26/10:00pm 9.1 6.8 5.5 78 1.6 SSW 7 9 4 5 1023.3 1023.4 0.4
26/09:30pm 9.9 6.8 5.5 74 2.0 SW 11 15 6 8 1023.2 - 0.4
26/09:00pm 9.4 6.7 5.6 77 1.7 SW 9 11 5 6 1023.3 1023.4 0.4
26/08:30pm 9.5 7.2 5.5 76 1.8 SSW 7 9 4 5 1023.2 - 0.4
26/08:00pm 10.4 8.1 5.6 72 2.2 SSW 7 9 4 5 1023.1 1023.2 0.4
26/07:30pm 11.4 9.0 5.3 66 2.8 WSW 7 9 4 5 1022.7 - 0.4
26/07:00pm 12.0 9.6 5.4 64 3.1 WSW 7 11 4 6 1022.6 1022.7 0.4
26/06:30pm 12.1 10.3 5.5 64 3.1 SSW 4 7 2 4 1022.2 - 0.4
26/06:00pm 14.3 11.7 5.9 57 4.0 SW 9 13 5 7 1021.8 1021.9 0.4
26/05:30pm 13.6 11.9 7.4 66 3.0 WSW 6 13 3 7 1021.4 - 0.4
26/05:00pm 15.6 14.9 6.9 56 4.3 CALM 0 0 0 0 1021.1 1021.2 0.4
26/04:30pm 17.9 16.2 7.6 51 5.2 NNW 6 7 3 4 1020.8 - 0.4
26/04:00pm 18.5 16.5 7.3 48 5.7 WNW 7 11 4 6 1020.6 1020.7 0.4
26/03:30pm 18.3 16.4 7.7 50 5.4 W 7 11 4 6 1020.5 - 0.4
26/03:00pm 17.9 16.2 7.6 51 5.2 W 6 9 3 5 1020.4 1020.5 0.4

Latest Capital City Observations: Canberra | Sydney | Melbourne | Brisbane | Adelaide | Perth | Hobart | Darwin

Other Formats:

Comma delimited format used in spreadsheet applications
http://www.bom.gov.au/fwo/IDN60901/IDN60901.95761.axf

JavaScript Object Notation format (JSON) in row-major order
http://www.bom.gov.au/fwo/IDN60901/IDN60901.95761.json